Time;durP1;ratioP1;P1;durP2;ratioP2;P2;SDS_P1;SDS_P2;PMS_P1;PMS_P2;Temp;Humidity;BMP_temperature;BMP_pressure;BME280_temperature;BME280_humidity;BME280_pressure;Samples;Min_cycle;Max_cycle;Signal;HPM_P1;HPM_P2
2022/10/31 00:00:20;;;;;;;13.70;7.45;;;16.40;79.30;;;;;;5035556;28;20030;-74
2022/10/31 00:02:46;;;;;;;15.45;7.55;;;16.40;79.60;;;;;;5052710;28;20073;-74
2022/10/31 00:05:12;;;;;;;12.95;7.72;;;16.40;79.40;;;;;;5052912;28;20029;-74
2022/10/31 00:07:37;;;;;;;14.52;7.70;;;16.30;79.50;;;;;;5052669;28;20124;-74
2022/10/31 00:10:03;;;;;;;15.65;7.75;;;16.30;79.50;;;;;;5052799;28;20029;-74
2022/10/31 00:12:29;;;;;;;15.00;8.05;;;16.30;79.50;;;;;;5052773;28;20049;-74
2022/10/31 00:14:54;;;;;;;14.55;7.95;;;16.30;79.40;;;;;;5052765;28;20025;-74
2022/10/31 00:17:20;;;;;;;14.73;8.35;;;16.30;80.30;;;;;;5035467;28;20030;-74
2022/10/31 00:19:45;;;;;;;15.65;8.35;;;16.20;79.80;;;;;;5052711;28;20041;-74
2022/10/31 00:22:11;;;;;;;15.02;7.55;;;16.30;80.00;;;;;;5035220;28;20045;-74
2022/10/31 00:24:37;;;;;;;21.60;9.13;;;16.30;79.80;;;;;;5053361;28;20036;-74
2022/10/31 00:27:02;;;;;;;21.15;8.82;;;16.20;79.80;;;;;;5056382;28;20084;-74
2022/10/31 00:29:28;;;;;;;18.38;8.55;;;16.20;80.10;;;;;;5056408;28;20036;-74
2022/10/31 00:31:53;;;;;;;17.85;8.20;;;16.20;80.10;;;;;;5038844;28;20033;-74
2022/10/31 00:34:19;;;;;;;16.35;7.88;;;16.20;80.00;;;;;;5056369;28;20044;-74
2022/10/31 00:36:44;;;;;;;14.73;7.60;;;16.20;79.70;;;;;;5056217;28;20116;-74
2022/10/31 00:39:10;;;;;;;14.75;7.20;;;16.20;79.40;;;;;;5056161;28;20113;-74
2022/10/31 00:41:36;;;;;;;16.48;7.90;;;16.20;79.10;;;;;;5038733;28;20029;-74
2022/10/31 00:44:01;;;;;;;14.05;7.43;;;16.10;79.00;;;;;;5056094;28;20089;-74
2022/10/31 00:46:27;;;;;;;17.63;7.97;;;16.00;79.10;;;;;;5056048;28;20033;-74
2022/10/31 00:48:52;;;;;;;15.25;6.85;;;15.90;79.60;;;;;;5055905;28;20037;-74
2022/10/31 00:51:18;;;;;;;10.90;6.50;;;15.90;79.60;;;;;;5038466;28;20052;-74
2022/10/31 00:53:44;;;;;;;10.82;6.32;;;15.80;79.00;;;;;;5038387;28;20025;-74
2022/10/31 00:56:09;;;;;;;10.48;6.07;;;15.90;78.50;;;;;;5055843;28;20030;-74
2022/10/31 00:58:35;;;;;;;10.88;6.35;;;15.80;78.20;;;;;;5055803;28;20033;-74
2022/10/31 01:01:01;;;;;;;12.30;6.65;;;15.80;77.80;;;;;;5005658;28;20484;-74
2022/10/31 01:03:30;;;;;;;11.77;6.70;;;15.70;77.60;;;;;;5055574;28;20049;-75
2022/10/31 01:06:10;;;;;;;13.95;6.57;;;15.50;78.10;;;;;;5055665;28;20085;-74
2022/10/31 01:08:36;;;;;;;15.00;6.25;;;15.50;78.40;;;;;;5055544;28;20029;-76
2022/10/31 01:11:17;;;;;;;12.82;7.05;;;15.60;78.00;;;;;;5054560;28;20038;-74
2022/10/31 01:13:44;;;;;;;7.82;5.00;;;15.60;77.80;;;;;;5055550;28;20018;-74
2022/10/31 01:16:16;;;;;;;8.45;4.68;;;15.50;77.20;;;;;;5038180;28;20033;-74
2022/10/31 01:18:42;;;;;;;10.30;5.45;;;15.50;77.00;;;;;;5055481;28;20026;-74
2022/10/31 01:21:14;;;;;;;10.50;5.78;;;15.40;77.50;;;;;;5055393;28;20029;-74
2022/10/31 01:23:40;;;;;;;8.85;4.65;;;15.20;78.10;;;;;;5055388;28;20029;-74
2022/10/31 01:26:10;;;;;;;14.27;6.63;;;15.20;78.20;;;;;;5054345;28;20072;-74
2022/10/31 01:28:38;;;;;;;9.93;5.50;;;15.20;78.00;;;;;;5055182;28;20026;-74
2022/10/31 01:31:07;;;;;;;6.55;4.07;;;15.20;78.20;;;;;;5055195;28;20484;-74
2022/10/31 01:33:33;;;;;;;5.45;3.00;;;15.20;78.30;;;;;;5055181;28;20096;-74
2022/10/31 01:35:58;;;;;;;13.75;6.95;;;15.10;78.40;;;;;;5054571;28;20053;-74
2022/10/31 01:38:24;;;;;;;9.73;5.70;;;15.20;78.50;;;;;;5053853;28;20029;-74
2022/10/31 01:40:50;;;;;;;12.23;6.35;;;15.00;78.40;;;;;;5055019;28;20025;-74
2022/10/31 01:43:16;;;;;;;9.68;6.03;;;14.90;79.00;;;;;;5054978;28;20026;-74
2022/10/31 01:45:46;;;;;;;10.35;6.28;;;14.90;79.80;;;;;;5054948;28;20040;-74
2022/10/31 01:48:15;;;;;;;11.00;5.82;;;14.90;80.00;;;;;;5054815;28;20017;-74
2022/10/31 01:50:43;;;;;;;14.80;6.82;;;14.90;79.60;;;;;;5054831;28;20018;-74
2022/10/31 01:53:10;;;;;;;18.00;7.95;;;14.90;79.20;;;;;;5054783;28;20021;-74
2022/10/31 01:55:41;;;;;;;16.98;7.93;;;14.90;79.10;;;;;;5037168;28;20030;-74
2022/10/31 01:58:11;;;;;;;10.73;6.30;;;15.00;78.80;;;;;;5054752;28;20094;-74
2022/10/31 02:00:38;;;;;;;10.48;6.28;;;14.90;78.20;;;;;;5054696;28;20088;-74
2022/10/31 02:03:04;;;;;;;11.02;5.88;;;14.80;78.10;;;;;;5054193;28;20050;-75
2022/10/31 02:05:30;;;;;;;10.10;5.55;;;14.70;78.00;;;;;;5054559;28;20068;-74
2022/10/31 02:08:18;;;;;;;9.35;5.60;;;14.80;78.10;;;;;;5036958;28;20040;-74
2022/10/31 02:10:44;;;;;;;8.25;5.50;;;14.90;78.00;;;;;;5054653;28;20056;-74
2022/10/31 02:13:12;;;;;;;8.95;5.40;;;14.70;78.30;;;;;;5036946;28;20026;-74
2022/10/31 02:15:39;;;;;;;10.18;5.70;;;14.70;78.70;;;;;;5054348;28;20029;-74
2022/10/31 02:18:07;;;;;;;7.85;4.82;;;14.70;78.60;;;;;;5054318;28;20029;-74
2022/10/31 02:20:40;;;;;;;8.75;5.40;;;14.60;78.30;;;;;;5054242;28;20026;-74
2022/10/31 02:23:26;;;;;;;8.75;5.28;;;14.50;78.40;;;;;;5054224;28;20033;-74
2022/10/31 02:26:23;;;;;;;9.38;5.82;;;14.60;78.30;;;;;;5054235;28;20021;-74
2022/10/31 02:28:58;;;;;;;9.90;5.95;;;14.60;78.40;;;;;;5053057;28;20049;-74
2022/10/31 02:32:05;;;;;;;11.07;5.97;;;14.50;78.40;;;;;;5054224;28;20057;-74
2022/10/31 02:35:03;;;;;;;10.35;6.13;;;14.30;78.70;;;;;;5053739;28;20040;-74
2022/10/31 02:37:44;;;;;;;10.27;5.40;;;14.30;79.50;;;;;;5034315;28;20034;-74
2022/10/31 02:40:20;;;;;;;8.98;5.53;;;14.20;79.70;;;;;;5053927;28;20036;-74
2022/10/31 02:43:19;;;;;;;10.30;5.63;;;14.30;79.70;;;;;;5053896;28;20017;-74
2022/10/31 02:45:50;;;;;;;10.23;5.80;;;14.40;79.20;;;;;;5052906;28;20044;-74
2022/10/31 02:48:21;;;;;;;10.48;5.65;;;14.40;79.10;;;;;;5053705;28;20025;-74
2022/10/31 02:51:00;;;;;;;10.85;5.60;;;14.50;78.50;;;;;;5053762;28;20527;-75
2022/10/31 02:53:26;;;;;;;11.68;6.20;;;14.30;78.20;;;;;;5053738;28;20021;-74
2022/10/31 02:56:21;;;;;;;11.30;6.00;;;14.20;79.60;;;;;;5053618;28;20025;-74
2022/10/31 02:58:58;;;;;;;9.88;5.90;;;14.10;78.90;;;;;;5032509;28;20362;-74
2022/10/31 03:02:09;;;;;;;10.68;4.95;;;14.00;79.10;;;;;;5053577;28;20017;-74
2022/10/31 03:04:58;;;;;;;8.23;4.30;;;14.00;78.80;;;;;;5010946;28;20064;-74
2022/10/31 03:07:50;;;;;;;9.93;4.75;;;14.00;78.60;;;;;;5053450;28;20017;-74
2022/10/31 03:10:37;;;;;;;11.73;5.50;;;13.90;78.40;;;;;;5053555;28;20033;-74
2022/10/31 03:13:20;;;;;;;10.77;5.80;;;13.90;78.60;;;;;;5035959;28;20036;-74
2022/10/31 03:15:50;;;;;;;10.13;5.28;;;14.00;78.80;;;;;;5053378;28;20029;-74
2022/10/31 03:18:30;;;;;;;10.35;5.28;;;14.10;78.80;;;;;;5053315;28;20386;-74
2022/10/31 03:21:06;;;;;;;8.98;5.20;;;14.20;78.50;;;;;;5052334;28;20057;-74
2022/10/31 03:23:34;;;;;;;11.10;5.25;;;14.30;78.10;;;;;;5053245;28;20057;-74
2022/10/31 03:26:03;;;;;;;9.27;5.18;;;14.30;78.00;;;;;;5053186;28;20032;-74
2022/10/31 03:28:34;;;;;;;10.60;5.80;;;14.20;77.80;;;;;;5053130;28;20081;-74
2022/10/31 03:31:02;;;;;;;8.75;5.35;;;14.20;77.80;;;;;;5052234;28;20026;-74
2022/10/31 03:33:32;;;;;;;9.82;5.20;;;14.30;78.00;;;;;;5053115;28;20021;-74
2022/10/31 03:36:01;;;;;;;10.57;5.30;;;14.20;77.60;;;;;;5053148;28;20025;-74
2022/10/31 03:38:28;;;;;;;9.07;5.07;;;14.10;77.40;;;;;;5053077;28;20030;-74
2022/10/31 03:40:56;;;;;;;7.80;5.20;;;14.00;77.80;;;;;;5053070;28;20093;-74
2022/10/31 03:43:28;;;;;;;9.85;4.90;;;13.90;78.10;;;;;;5053038;28;20036;-74
2022/10/31 03:45:54;;;;;;;8.07;5.50;;;13.90;78.30;;;;;;5053103;28;20026;-75
2022/10/31 03:48:21;;;;;;;8.35;5.20;;;13.80;78.60;;;;;;5035744;28;20026;-74
2022/10/31 03:51:16;;;;;;;7.63;4.68;;;13.70;78.90;;;;;;5052991;28;20032;-74
2022/10/31 03:54:15;;;;;;;7.93;4.95;;;13.70;78.90;;;;;;5053078;28;20018;-74
2022/10/31 03:56:47;;;;;;;7.53;4.60;;;13.70;79.00;;;;;;5020874;28;20064;-74
2022/10/31 03:59:18;;;;;;;6.03;3.92;;;13.80;78.90;;;;;;5052115;28;20026;-74
2022/10/31 04:01:50;;;;;;;5.47;3.90;;;13.90;78.60;;;;;;5039281;28;20120;-74
2022/10/31 04:04:16;;;;;;;8.10;4.05;;;13.90;78.50;;;;;;5056699;28;20041;-74
2022/10/31 04:06:44;;;;;;;6.07;4.35;;;13.90;78.40;;;;;;5039450;28;20057;-74
2022/10/31 04:09:10;;;;;;;6.15;4.00;;;13.80;78.30;;;;;;5056584;28;20036;-74
2022/10/31 04:11:42;;;;;;;6.63;4.80;;;13.90;77.70;;;;;;5056734;28;20021;-74
2022/10/31 04:14:10;;;;;;;7.45;4.22;;;13.90;77.60;;;;;;5056691;28;20014;-74
2022/10/31 04:16:37;;;;;;;5.68;3.72;;;13.80;77.50;;;;;;5056623;28;20048;-74
2022/10/31 04:19:02;;;;;;;5.53;2.83;;;13.80;77.40;;;;;;5056563;28;20432;-74
2022/10/31 04:21:29;;;;;;;4.30;2.30;;;13.80;77.00;;;;;;5022775;28;20025;-74
2022/10/31 04:23:55;;;;;;;3.60;2.25;;;13.80;77.00;;;;;;5056486;28;20100;-74
2022/10/31 04:26:21;;;;;;;5.75;2.75;;;13.80;77.10;;;;;;5039066;28;20025;-74
2022/10/31 04:28:47;;;;;;;6.05;3.65;;;13.70;77.30;;;;;;5056303;28;20049;-74
2022/10/31 04:31:13;;;;;;;7.70;4.15;;;13.70;77.70;;;;;;5038827;28;20029;-74
2022/10/31 04:33:38;;;;;;;7.20;3.88;;;13.60;77.80;;;;;;5056280;28;20033;-74
2022/10/31 04:36:04;;;;;;;8.50;4.30;;;13.50;78.10;;;;;;5056250;28;20026;-74
2022/10/31 04:38:30;;;;;;;7.88;4.43;;;13.50;78.10;;;;;;5056203;28;20033;-74
2022/10/31 04:40:56;;;;;;;10.60;4.55;;;13.60;77.80;;;;;;5056192;28;20026;-74
2022/10/31 04:43:21;;;;;;;8.20;4.55;;;13.40;77.90;;;;;;5056237;28;20034;-74
2022/10/31 04:45:47;;;;;;;7.93;4.65;;;13.30;78.40;;;;;;5038788;28;20034;-74
2022/10/31 04:48:13;;;;;;;8.10;4.38;;;13.20;78.60;;;;;;5055037;28;20025;-74
2022/10/31 04:50:38;;;;;;;10.18;4.28;;;13.20;78.60;;;;;;5055013;28;20370;-74
2022/10/31 04:53:04;;;;;;;10.05;4.30;;;13.10;78.90;;;;;;5055928;28;20030;-74
2022/10/31 04:55:29;;;;;;;7.10;3.70;;;13.20;79.20;;;;;;5055875;28;20116;-74
2022/10/31 04:57:55;;;;;;;6.88;3.58;;;13.20;78.70;;;;;;5055861;28;20022;-74
2022/10/31 05:00:21;;;;;;;7.32;3.50;;;13.30;78.60;;;;;;5055801;28;20029;-75
2022/10/31 05:02:49;;;;;;;6.18;3.78;;;13.30;78.50;;;;;;5038316;28;20040;-74
2022/10/31 05:05:16;;;;;;;7.20;4.28;;;13.10;78.80;;;;;;5055638;28;20054;-74
2022/10/31 05:07:43;;;;;;;5.90;4.15;;;13.10;79.20;;;;;;5038084;28;20064;-74
2022/10/31 05:10:11;;;;;;;6.47;4.13;;;13.00;79.70;;;;;;5055599;28;20030;-74
2022/10/31 05:12:37;;;;;;;6.88;4.43;;;13.10;79.60;;;;;;5054545;28;20393;-74
2022/10/31 05:15:03;;;;;;;8.43;4.70;;;13.20;79.30;;;;;;5055538;28;20089;-74
2022/10/31 05:17:30;;;;;;;7.35;4.10;;;13.20;78.90;;;;;;5055507;28;20032;-74
2022/10/31 05:19:56;;;;;;;6.40;4.30;;;13.20;78.70;;;;;;5055460;28;20060;-74
2022/10/31 05:22:22;;;;;;;6.55;4.40;;;13.10;78.70;;;;;;5055378;28;20029;-74
2022/10/31 05:24:47;;;;;;;6.50;4.00;;;13.20;78.60;;;;;;5055307;28;20048;-74
2022/10/31 05:27:13;;;;;;;9.73;4.47;;;13.20;78.30;;;;;;5037872;28;20033;-74
2022/10/31 05:29:38;;;;;;;4.68;3.22;;;13.20;78.30;;;;;;5054242;28;20029;-74
2022/10/31 05:32:04;;;;;;;5.38;3.30;;;13.10;78.00;;;;;;5055218;28;20029;-74
2022/10/31 05:34:30;;;;;;;5.57;3.05;;;13.00;77.80;;;;;;5055195;28;20025;-74
2022/10/31 05:36:55;;;;;;;4.85;3.03;;;13.00;77.40;;;;;;5037649;28;20091;-74
2022/10/31 05:39:22;;;;;;;4.30;3.15;;;13.00;77.60;;;;;;5055085;28;20040;-74
2022/10/31 05:41:47;;;;;;;5.00;2.90;;;12.90;77.50;;;;;;5055092;28;20037;-74
2022/10/31 05:44:13;;;;;;;6.70;3.67;;;12.90;77.70;;;;;;5037612;28;20033;-74
2022/10/31 05:46:38;;;;;;;4.72;3.45;;;12.80;78.10;;;;;;5037533;28;20037;-74
2022/10/31 05:49:04;;;;;;;7.00;3.72;;;12.70;78.40;;;;;;5037336;28;20033;-74
2022/10/31 05:51:29;;;;;;;6.32;3.65;;;12.60;78.60;;;;;;5054835;28;20026;-75
2022/10/31 05:53:55;;;;;;;10.77;3.90;;;12.60;79.50;;;;;;5037338;28;20033;-74
2022/10/31 05:56:21;;;;;;;6.85;4.18;;;12.50;79.10;;;;;;5037356;28;20056;-74
2022/10/31 05:58:46;;;;;;;6.45;3.80;;;12.50;79.30;;;;;;5054650;28;20026;-74
2022/10/31 06:01:12;;;;;;;7.25;4.28;;;12.60;79.20;;;;;;5054640;28;20033;-74
2022/10/31 06:03:37;;;;;;;9.98;4.13;;;12.80;79.10;;;;;;5036986;28;20045;-74
2022/10/31 06:06:03;;;;;;;7.47;4.35;;;12.80;78.90;;;;;;5054619;28;20042;-74
2022/10/31 06:08:29;;;;;;;8.07;4.53;;;12.90;78.80;;;;;;5054352;28;20034;-74
2022/10/31 06:10:55;;;;;;;7.38;4.55;;;12.90;78.90;;;;;;5054435;28;20030;-74
2022/10/31 06:13:21;;;;;;;8.27;4.70;;;12.90;78.80;;;;;;5054436;28;20017;-74
2022/10/31 06:15:46;;;;;;;8.15;4.57;;;13.00;78.80;;;;;;5054273;28;20032;-74
2022/10/31 06:18:12;;;;;;;10.70;4.93;;;13.00;78.60;;;;;;5036885;28;20040;-74
2022/10/31 06:20:37;;;;;;;12.48;4.70;;;13.00;78.60;;;;;;5054270;28;20034;-74
2022/10/31 06:23:03;;;;;;;9.57;4.57;;;13.00;78.70;;;;;;5036429;28;20034;-73
2022/10/31 06:25:29;;;;;;;7.43;4.30;;;13.00;78.80;;;;;;5036938;28;20064;-74
2022/10/31 06:27:55;;;;;;;10.15;5.28;;;12.90;79.00;;;;;;5054067;28;20034;-74
2022/10/31 06:30:21;;;;;;;10.23;4.80;;;12.80;79.50;;;;;;5054088;28;20022;-74
2022/10/31 06:32:47;;;;;;;8.32;4.50;;;12.80;79.70;;;;;;5054054;28;20021;-74
2022/10/31 06:35:12;;;;;;;11.13;4.30;;;12.90;79.70;;;;;;5036538;28;20036;-74
2022/10/31 06:37:39;;;;;;;8.70;5.03;;;12.90;79.60;;;;;;5036618;28;20408;-74
2022/10/31 06:40:05;;;;;;;10.93;5.32;;;12.90;79.90;;;;;;5036451;28;20029;-74
2022/10/31 06:42:31;;;;;;;9.30;5.45;;;12.90;79.90;;;;;;5053844;28;20031;-74
2022/10/31 06:44:56;;;;;;;10.35;5.32;;;12.80;79.80;;;;;;5053849;28;20030;-74
2022/10/31 06:47:22;;;;;;;8.23;4.72;;;12.80;80.00;;;;;;5036353;28;20041;-74
2022/10/31 06:49:47;;;;;;;7.22;4.60;;;12.80;79.60;;;;;;5036163;28;20114;-74
2022/10/31 06:52:13;;;;;;;7.18;4.13;;;12.70;79.70;;;;;;5036332;28;20473;-74
2022/10/31 06:54:39;;;;;;;7.60;4.00;;;12.70;79.80;;;;;;5053678;28;20022;-74
2022/10/31 06:57:04;;;;;;;9.07;4.22;;;12.60;79.80;;;;;;5036161;28;20041;-74
2022/10/31 06:59:30;;;;;;;9.73;4.90;;;12.60;79.60;;;;;;5036192;28;20061;-74
2022/10/31 07:01:58;;;;;;;8.02;4.00;;;12.60;79.70;;;;;;5036154;28;20097;-74
2022/10/31 07:04:24;;;;;;;8.13;4.30;;;12.60;79.80;;;;;;5053339;28;20073;-74
2022/10/31 07:06:52;;;;;;;8.82;4.68;;;12.60;80.30;;;;;;5053460;28;20040;-74
2022/10/31 07:09:19;;;;;;;9.45;4.63;;;12.50;80.50;;;;;;5053328;28;20029;-74
2022/10/31 07:11:44;;;;;;;9.38;4.60;;;12.50;81.00;;;;;;5053465;28;20024;-75
2022/10/31 07:14:10;;;;;;;7.97;4.93;;;12.50;81.40;;;;;;5035943;28;20033;-74
2022/10/31 07:16:35;;;;;;;11.50;4.88;;;12.60;81.40;;;;;;5035856;28;20030;-74
2022/10/31 07:19:01;;;;;;;14.52;5.70;;;12.50;81.40;;;;;;5035990;28;20034;-74
2022/10/31 07:21:26;;;;;;;10.30;5.40;;;12.50;81.70;;;;;;5035902;28;20032;-74
2022/10/31 07:23:52;;;;;;;10.02;5.82;;;12.50;82.10;;;;;;5035712;28;20033;-74
2022/10/31 07:26:18;;;;;;;10.23;5.82;;;12.40;82.50;;;;;;5053263;28;20029;-74
2022/10/31 07:28:45;;;;;;;8.23;5.20;;;12.50;82.50;;;;;;5035792;28;20030;-74
2022/10/31 07:31:10;;;;;;;7.47;5.55;;;12.60;82.80;;;;;;5053199;28;20018;-74
2022/10/31 07:33:36;;;;;;;8.73;5.65;;;12.70;82.30;;;;;;5053032;28;20036;-74
2022/10/31 07:36:02;;;;;;;9.80;5.70;;;12.80;82.00;;;;;;5052580;28;20076;-74
2022/10/31 07:38:27;;;;;;;8.85;5.30;;;12.90;81.80;;;;;;5035754;28;20034;-74
2022/10/31 07:40:53;;;;;;;9.15;5.28;;;12.80;81.70;;;;;;5053037;28;20042;-74
2022/10/31 07:43:19;;;;;;;9.27;5.57;;;12.80;82.10;;;;;;5035652;28;20025;-74
2022/10/31 07:45:52;;;;;;;8.00;5.10;;;12.90;82.10;;;;;;5035627;28;20485;-74
2022/10/31 07:48:17;;;;;;;9.40;5.60;;;12.90;82.20;;;;;;5053154;28;20089;-74
2022/10/31 07:50:44;;;;;;;9.27;5.45;;;12.90;82.00;;;;;;5035425;28;20026;-74
2022/10/31 07:53:11;;;;;;;10.48;5.65;;;13.00;82.10;;;;;;5035874;28;20089;-74
2022/10/31 07:55:37;;;;;;;11.82;5.60;;;13.10;82.10;;;;;;5035646;28;20033;-74
2022/10/31 07:58:04;;;;;;;11.52;5.20;;;13.10;82.00;;;;;;5052933;28;20029;-74
2022/10/31 08:00:31;;;;;;;10.77;5.93;;;13.10;82.10;;;;;;5052883;28;20029;-74
2022/10/31 08:03:01;;;;;;;14.32;6.75;;;13.20;82.20;;;;;;5035343;28;20048;-74
2022/10/31 08:05:28;;;;;;;12.10;6.20;;;13.30;82.20;;;;;;5052931;28;20033;-73
2022/10/31 08:07:54;;;;;;;12.25;6.80;;;13.30;82.20;;;;;;5051679;28;20093;-73
2022/10/31 08:10:20;;;;;;;14.02;6.70;;;13.40;82.50;;;;;;5052780;28;20025;-73
2022/10/31 08:12:46;;;;;;;11.95;6.82;;;13.40;82.70;;;;;;5052769;28;20033;-73
2022/10/31 08:15:12;;;;;;;16.52;8.23;;;13.40;83.10;;;;;;5035234;28;20025;-73
2022/10/31 08:17:38;;;;;;;18.23;8.85;;;13.60;83.60;;;;;;5052767;28;20049;-74
2022/10/31 08:20:05;;;;;;;15.45;8.20;;;13.70;83.90;;;;;;5052745;28;20037;-74
2022/10/31 08:22:31;;;;;;;15.93;8.77;;;13.70;83.90;;;;;;5052676;28;20020;-74
2022/10/31 08:24:56;;;;;;;18.55;9.60;;;13.70;84.20;;;;;;5051755;28;20017;-74
2022/10/31 08:27:22;;;;;;;19.35;10.27;;;13.90;84.40;;;;;;5052640;28;20032;-73
2022/10/31 08:29:48;;;;;;;21.25;11.68;;;14.00;84.30;;;;;;5052544;28;20033;-74
2022/10/31 08:32:13;;;;;;;27.02;13.70;;;14.20;84.30;;;;;;5051596;28;20465;-73
2022/10/31 08:34:39;;;;;;;19.38;13.18;;;14.30;84.70;;;;;;5052605;28;20056;-74
2022/10/31 08:37:04;;;;;;;21.60;12.95;;;14.40;85.00;;;;;;5035367;28;20025;-74
2022/10/31 08:39:30;;;;;;;24.50;14.10;;;14.40;84.70;;;;;;5035067;28;20037;-75
2022/10/31 08:41:56;;;;;;;29.65;16.35;;;14.60;84.80;;;;;;5052635;28;20025;-74
2022/10/31 08:44:21;;;;;;;26.80;16.50;;;14.70;84.90;;;;;;5035175;28;20061;-75
2022/10/31 08:46:47;;;;;;;29.80;18.65;;;14.90;85.70;;;;;;5037508;28;20068;-75
2022/10/31 08:49:13;;;;;;;31.85;18.75;;;15.10;84.80;;;;;;5038431;28;20033;-75
2022/10/31 08:51:38;;;;;;;33.50;18.75;;;15.20;84.80;;;;;;5038628;28;20033;-75
2022/10/31 08:54:04;;;;;;;32.15;17.95;;;15.30;84.70;;;;;;5054942;28;20057;-75
2022/10/31 08:56:29;;;;;;;33.83;19.38;;;15.30;84.90;;;;;;5038459;28;20060;-75
2022/10/31 08:58:56;;;;;;;31.35;19.92;;;15.40;85.20;;;;;;5055862;28;20034;-75
2022/10/31 09:01:22;;;;;;;32.95;20.45;;;15.50;85.20;;;;;;5038482;28;20022;-74
2022/10/31 09:03:47;;;;;;;33.47;18.50;;;15.50;85.10;;;;;;5055418;28;20041;-75
2022/10/31 09:06:13;;;;;;;34.55;19.98;;;15.50;86.40;;;;;;5038278;28;20045;-75
2022/10/31 09:08:39;;;;;;;33.88;19.20;;;15.50;85.30;;;;;;5055508;28;20030;-75
2022/10/31 09:11:06;;;;;;;40.58;20.95;;;15.50;85.50;;;;;;5054619;28;20024;-75
2022/10/31 09:13:32;;;;;;;38.22;21.13;;;15.40;85.90;;;;;;5038121;28;20029;-75
2022/10/31 09:16:00;;;;;;;40.45;22.33;;;15.40;86.70;;;;;;5038026;28;20030;-74
2022/10/31 09:18:29;;;;;;;32.10;18.85;;;15.40;86.60;;;;;;5055523;28;20021;-74
2022/10/31 09:20:58;;;;;;;33.75;17.50;;;15.40;86.30;;;;;;5055463;28;20065;-74
2022/10/31 09:23:24;;;;;;;31.73;16.67;;;15.50;86.90;;;;;;5055389;28;20077;-75
2022/10/31 09:25:52;;;;;;;31.83;16.90;;;15.50;87.10;;;;;;5038034;28;20049;-74
2022/10/31 09:28:21;;;;;;;31.20;16.90;;;15.50;87.80;;;;;;5055240;28;20026;-74
2022/10/31 09:30:48;;;;;;;31.40;16.17;;;15.40;87.70;;;;;;5055284;28;20017;-74
2022/10/31 09:33:14;;;;;;;32.85;16.75;;;15.40;88.20;;;;;;5055213;28;20041;-74
2022/10/31 09:35:41;;;;;;;34.25;16.25;;;15.40;88.00;;;;;;5055158;28;20025;-74
2022/10/31 09:38:23;;;;;;;32.15;16.95;;;15.50;88.60;;;;;;5055136;28;20041;-74
2022/10/31 09:41:03;;;;;;;31.95;17.45;;;15.50;88.90;;;;;;5055126;28;20030;-74
2022/10/31 09:43:32;;;;;;;34.72;17.88;;;15.50;88.90;;;;;;5055016;28;20059;-74
2022/10/31 09:46:28;;;;;;;35.10;17.65;;;15.60;88.90;;;;;;5037459;28;20201;-74
2022/10/31 09:49:32;;;;;;;38.58;17.85;;;15.80;89.60;;;;;;5055028;28;20052;-75
2022/10/31 09:52:11;;;;;;;36.03;16.75;;;15.90;89.80;;;;;;5037255;28;20022;-74
2022/10/31 09:54:41;;;;;;;33.38;16.42;;;15.90;88.90;;;;;;5054989;28;20022;-74
2022/10/31 09:57:12;;;;;;;35.80;16.05;;;15.90;88.70;;;;;;5054216;28;20032;-74
2022/10/31 09:59:41;;;;;;;33.60;16.40;;;15.90;88.20;;;;;;5054797;28;20112;-74
2022/10/31 10:02:16;;;;;;;35.70;16.85;;;15.90;88.70;;;;;;5054680;28;20077;-74
2022/10/31 10:04:52;;;;;;;34.80;15.73;;;16.00;88.80;;;;;;5054422;28;20057;-74
2022/10/31 10:07:49;;;;;;;33.45;15.93;;;16.00;88.60;;;;;;5054587;28;20056;-74
2022/10/31 10:10:27;;;;;;;35.85;16.65;;;16.00;88.40;;;;;;5054494;28;20033;-75
2022/10/31 10:13:22;;;;;;;40.67;15.80;;;15.90;88.30;;;;;;5053522;28;20029;-74
2022/10/31 10:16:11;;;;;;;29.92;15.52;;;16.00;88.50;;;;;;5054446;28;20057;-75
2022/10/31 10:18:52;;;;;;;30.50;15.40;;;15.90;88.50;;;;;;5054226;28;20021;-74
2022/10/31 10:21:50;;;;;;;39.88;16.73;;;16.00;88.40;;;;;;5054374;28;20033;-74
2022/10/31 10:24:27;;;;;;;36.83;16.90;;;16.10;88.40;;;;;;5054245;28;20018;-74
2022/10/31 10:27:13;;;;;;;36.47;16.08;;;16.10;88.40;;;;;;5054253;28;20030;-74
2022/10/31 10:30:03;;;;;;;32.97;16.90;;;16.20;88.80;;;;;;5054070;28;20030;-75
2022/10/31 10:32:42;;;;;;;35.55;16.88;;;16.20;88.10;;;;;;5054255;28;20028;-74
2022/10/31 10:35:14;;;;;;;36.78;17.45;;;16.40;88.10;;;;;;5054100;28;20076;-74
2022/10/31 10:37:43;;;;;;;;;;;16.50;88.30;;;;;;5054602;28;20052;-74
2022/10/31 10:40:17;;;;;;;39.58;16.15;;;16.60;88.20;;;;;;5053980;28;19916;-74
2022/10/31 10:43:23;;;;;;;35.65;16.38;;;16.70;89.00;;;;;;5053939;28;20036;-74
2022/10/31 10:48:50;;;;;;;35.22;16.00;;;17.00;87.70;;;;;;5053858;28;20041;-75
2022/10/31 10:51:27;;;;;;;34.03;15.82;;;17.10;87.00;;;;;;5053797;28;20052;-75
2022/10/31 10:54:13;;;;;;;30.55;14.90;;;17.10;86.10;;;;;;5053868;28;20037;-75
2022/10/31 10:56:45;;;;;;;32.78;15.48;;;17.10;85.30;;;;;;5052704;28;20026;-75
2022/10/31 10:59:15;;;;;;;37.60;16.67;;;17.00;85.60;;;;;;5053643;28;20025;-75
2022/10/31 11:01:42;;;;;;;31.08;16.58;;;17.00;85.70;;;;;;5053601;28;20287;-74
2022/10/31 11:04:26;;;;;;;35.45;17.60;;;17.10;86.00;;;;;;5053371;28;20063;-75
2022/10/31 11:06:59;;;;;;;30.73;15.60;;;17.10;85.70;;;;;;5035967;28;20052;-75
2022/10/31 11:09:25;;;;;;;34.75;17.23;;;17.20;85.90;;;;;;5052426;28;20038;-75
2022/10/31 11:11:51;;;;;;;33.78;16.92;;;17.20;86.20;;;;;;5053434;28;20036;-74
2022/10/31 11:14:18;;;;;;;35.45;16.63;;;17.20;85.90;;;;;;5053405;28;20032;-74
2022/10/31 11:16:48;;;;;;;34.05;17.20;;;17.30;86.10;;;;;;5053379;28;20037;-75
2022/10/31 11:19:19;;;;;;;36.75;16.05;;;17.30;85.90;;;;;;5053364;28;20081;-75
2022/10/31 11:21:45;;;;;;;33.05;15.40;;;17.40;85.80;;;;;;5053292;28;20039;-74
2022/10/31 11:24:11;;;;;;;32.80;16.02;;;17.40;85.20;;;;;;5053272;28;20057;-75
2022/10/31 11:26:39;;;;;;;32.05;15.50;;;17.30;84.80;;;;;;5035821;28;20049;-74
2022/10/31 11:29:10;;;;;;;30.13;15.68;;;17.40;85.40;;;;;;5052200;28;20021;-74
2022/10/31 11:31:36;;;;;;;33.75;16.02;;;17.40;85.40;;;;;;5053228;28;20039;-75
2022/10/31 11:34:05;;;;;;;28.48;14.75;;;17.40;84.40;;;;;;5053151;28;20061;-75
2022/10/31 11:36:36;;;;;;;33.00;16.20;;;17.40;84.50;;;;;;5053138;28;20025;-74
2022/10/31 11:39:04;;;;;;;32.77;16.00;;;17.40;84.90;;;;;;5052155;28;20116;-74
2022/10/31 11:41:31;;;;;;;34.28;16.48;;;17.50;84.70;;;;;;5053076;28;20052;-75
2022/10/31 11:43:59;;;;;;;34.60;16.02;;;17.50;84.40;;;;;;5053090;28;20477;-74
2022/10/31 11:46:40;;;;;;;35.85;15.93;;;17.50;84.30;;;;;;5053030;28;20056;-74
2022/10/31 11:49:23;;;;;;;29.13;14.77;;;17.50;84.30;;;;;;5053102;28;20029;-74
2022/10/31 11:51:54;;;;;;;31.45;15.77;;;17.40;84.10;;;;;;5052277;28;20049;-74
2022/10/31 11:54:32;;;;;;;33.40;15.57;;;17.50;84.40;;;;;;5035462;28;20041;-74
2022/10/31 11:56:58;;;;;;;36.95;15.95;;;17.60;84.60;;;;;;5052992;28;20097;-75
2022/10/31 11:59:28;;;;;;;34.50;16.00;;;17.70;84.80;;;;;;5052919;28;20029;-74
2022/10/31 12:01:56;;;;;;;34.65;15.45;;;17.70;84.50;;;;;;5052926;28;20021;-74
2022/10/31 12:04:41;;;;;;;33.67;14.98;;;17.80;83.60;;;;;;5052674;28;20041;-74
2022/10/31 12:07:07;;;;;;;36.67;14.10;;;18.00;83.50;;;;;;5052904;28;20025;-75
2022/10/31 12:09:37;;;;;;;33.25;14.15;;;18.10;82.80;;;;;;5035412;28;20113;-75
2022/10/31 12:12:31;;;;;;;28.40;14.48;;;18.20;82.60;;;;;;5052827;28;20081;-74
2022/10/31 12:15:24;;;;;;;28.38;12.88;;;18.30;82.10;;;;;;5052763;28;20021;-75
2022/10/31 12:17:58;;;;;;;25.48;11.80;;;18.30;79.80;;;;;;5052968;28;20021;-74
2022/10/31 12:20:58;;;;;;;24.73;12.88;;;18.20;80.10;;;;;;5053317;28;20018;-75
2022/10/31 12:23:41;;;;;;;27.15;13.10;;;18.10;80.10;;;;;;5056569;28;20109;-74
2022/10/31 12:26:27;;;;;;;26.38;12.57;;;18.10;79.70;;;;;;5039098;28;20089;-75
2022/10/31 12:29:20;;;;;;;29.45;13.65;;;18.00;79.90;;;;;;5056384;28;20030;-75
2022/10/31 12:32:08;;;;;;;28.90;13.45;;;18.10;80.50;;;;;;5044606;28;20030;-74
2022/10/31 12:34:55;;;;;;;29.30;13.00;;;18.10;80.80;;;;;;5056369;28;20026;-75
2022/10/31 12:37:33;;;;;;;28.05;13.02;;;18.10;80.70;;;;;;5056316;28;20043;-75
2022/10/31 12:40:10;;;;;;;26.50;12.63;;;18.10;80.50;;;;;;5056225;28;20044;-75
2022/10/31 12:43:08;;;;;;;28.70;12.73;;;18.10;80.40;;;;;;5056376;28;20060;-75
2022/10/31 12:45:37;;;;;;;25.08;11.80;;;18.10;81.10;;;;;;5056296;28;20026;-75
2022/10/31 12:48:11;;;;;;;25.25;11.88;;;18.10;81.10;;;;;;5056098;28;20037;-75
2022/10/31 12:50:49;;;;;;;26.83;11.73;;;18.10;80.20;;;;;;5056058;28;20021;-75
2022/10/31 12:53:38;;;;;;;24.00;11.77;;;18.10;80.30;;;;;;5055988;28;20024;-75
2022/10/31 12:56:11;;;;;;;26.95;11.40;;;18.00;80.80;;;;;;5056127;28;20014;-74
2022/10/31 12:58:43;;;;;;;23.70;12.02;;;18.00;79.40;;;;;;5055946;28;20076;-75